sensor_id;sensor_type;location;lat;lon;timestamp;pressure;altitude;pressure_sealevel;temperature;humidity
3440;BME280;1733;42.286;22.690;2023-04-01T00:00:59;94830.28;;;10.60;79.49
3440;BME280;1733;42.286;22.690;2023-04-01T00:03:27;94825.03;;;10.55;78.57
3440;BME280;1733;42.286;22.690;2023-04-01T00:05:57;94830.78;;;10.52;79.17
3440;BME280;1733;42.286;22.690;2023-04-01T00:08:26;94828.94;;;10.53;79.03
3440;BME280;1733;42.286;22.690;2023-04-01T00:10:54;94828.13;;;10.47;80.00
3440;BME280;1733;42.286;22.690;2023-04-01T00:13:22;94828.91;;;10.48;80.31
3440;BME280;1733;42.286;22.690;2023-04-01T00:15:51;94823.91;;;10.46;80.79
3440;BME280;1733;42.286;22.690;2023-04-01T00:18:18;94828.63;;;10.44;81.38
3440;BME280;1733;42.286;22.690;2023-04-01T00:20:46;94830.75;;;10.47;81.26
3440;BME280;1733;42.286;22.690;2023-04-01T00:23:15;94821.25;;;10.41;82.85
3440;BME280;1733;42.286;22.690;2023-04-01T00:25:43;94822.25;;;10.35;83.08
3440;BME280;1733;42.286;22.690;2023-04-01T00:28:10;94809.03;;;10.25;82.84
3440;BME280;1733;42.286;22.690;2023-04-01T00:30:37;94808.47;;;10.23;83.58
3440;BME280;1733;42.286;22.690;2023-04-01T00:33:05;94809.81;;;10.25;83.99
3440;BME280;1733;42.286;22.690;2023-04-01T00:35:31;94806.41;;;10.25;84.16
3440;BME280;1733;42.286;22.690;2023-04-01T00:37:58;94809.81;;;10.25;83.49
3440;BME280;1733;42.286;22.690;2023-04-01T00:40:29;94794.09;;;10.30;83.17
3440;BME280;1733;42.286;22.690;2023-04-01T00:42:56;94798.88;;;10.33;83.08
3440;BME280;1733;42.286;22.690;2023-04-01T00:45:33;94795.41;;;10.28;84.20
3440;BME280;1733;42.286;22.690;2023-04-01T00:48:04;94797.97;;;10.23;84.38
3440;BME280;1733;42.286;22.690;2023-04-01T00:50:33;94793.16;;;10.14;85.40
3440;BME280;1733;42.286;22.690;2023-04-01T00:53:01;94792.09;;;10.10;85.36
3440;BME280;1733;42.286;22.690;2023-04-01T00:55:33;94782.09;;;10.07;86.18
3440;BME280;1733;42.286;22.690;2023-04-01T00:58:03;94775.28;;;10.11;86.77
3440;BME280;1733;42.286;22.690;2023-04-01T01:00:32;94773.78;;;10.21;86.92
3440;BME280;1733;42.286;22.690;2023-04-01T01:02:59;94773.16;;;10.08;87.39
3440;BME280;1733;42.286;22.690;2023-04-01T01:05:34;94772.00;;;9.94;88.58
3440;BME280;1733;42.286;22.690;2023-04-01T01:08:12;94776.44;;;9.89;89.41
3440;BME280;1733;42.286;22.690;2023-04-01T01:10:43;94771.72;;;9.91;90.10
3440;BME280;1733;42.286;22.690;2023-04-01T01:13:17;94783.25;;;9.90;89.86
3440;BME280;1733;42.286;22.690;2023-04-01T01:15:46;94776.16;;;9.90;91.00
3440;BME280;1733;42.286;22.690;2023-04-01T01:18:21;94763.56;;;9.87;91.84
3440;BME280;1733;42.286;22.690;2023-04-01T01:21:12;94778.31;;;9.93;92.20
3440;BME280;1733;42.286;22.690;2023-04-01T01:24:02;94771.72;;;9.91;91.41
3440;BME280;1733;42.286;22.690;2023-04-01T01:26:48;94770.91;;;9.90;90.92
3440;BME280;1733;42.286;22.690;2023-04-01T01:29:35;94766.22;;;9.92;90.20
3440;BME280;1733;42.286;22.690;2023-04-01T01:32:15;94765.59;;;9.80;91.59
3440;BME280;1733;42.286;22.690;2023-04-01T01:34:48;94785.31;;;9.82;91.37
3440;BME280;1733;42.286;22.690;2023-04-01T01:37:21;94784.03;;;9.90;88.53
3440;BME280;1733;42.286;22.690;2023-04-01T01:39:52;94782.16;;;9.85;89.45
3440;BME280;1733;42.286;22.690;2023-04-01T01:42:22;94764.72;;;9.69;90.78
3440;BME280;1733;42.286;22.690;2023-04-01T01:44:51;94769.72;;;9.71;91.96
3440;BME280;1733;42.286;22.690;2023-04-01T01:47:19;94761.38;;;9.79;91.40
3440;BME280;1733;42.286;22.690;2023-04-01T01:49:48;94766.94;;;9.82;91.19
3440;BME280;1733;42.286;22.690;2023-04-01T01:52:16;94757.75;;;9.85;91.09
3440;BME280;1733;42.286;22.690;2023-04-01T01:54:49;94755.81;;;10.07;89.86
3440;BME280;1733;42.286;22.690;2023-04-01T01:57:17;94742.13;;;10.37;87.15
3440;BME280;1733;42.286;22.690;2023-04-01T01:59:47;94739.50;;;10.37;87.28
3440;BME280;1733;42.286;22.690;2023-04-01T02:02:15;94742.13;;;10.37;87.80
3440;BME280;1733;42.286;22.690;2023-04-01T02:04:44;94740.00;;;10.34;87.97
3440;BME280;1733;42.286;22.690;2023-04-01T02:07:16;94736.47;;;10.19;89.05
3440;BME280;1733;42.286;22.690;2023-04-01T02:09:45;94745.00;;;9.99;90.60
3440;BME280;1733;42.286;22.690;2023-04-01T02:12:15;94747.28;;;9.90;92.21
3440;BME280;1733;42.286;22.690;2023-04-01T02:14:45;94735.16;;;9.84;92.75
3440;BME280;1733;42.286;22.690;2023-04-01T02:17:16;94739.09;;;9.81;94.23
3440;BME280;1733;42.286;22.690;2023-04-01T02:19:47;94740.94;;;9.81;93.32
3440;BME280;1733;42.286;22.690;2023-04-01T02:22:19;94730.97;;;9.83;92.82
3440;BME280;1733;42.286;22.690;2023-04-01T02:24:47;94750.13;;;9.83;91.88
3440;BME280;1733;42.286;22.690;2023-04-01T02:27:16;94747.28;;;9.90;91.21
3440;BME280;1733;42.286;22.690;2023-04-01T02:29:43;94747.84;;;9.92;89.89
3440;BME280;1733;42.286;22.690;2023-04-01T02:32:10;94746.81;;;9.93;90.94
3440;BME280;1733;42.286;22.690;2023-04-01T02:34:39;94735.78;;;9.96;91.65
3440;BME280;1733;42.286;22.690;2023-04-01T02:37:06;94728.94;;;9.95;92.41
3440;BME280;1733;42.286;22.690;2023-04-01T02:39:33;94727.66;;;9.98;91.61
3440;BME280;1733;42.286;22.690;2023-04-01T02:42:00;94720.31;;;10.00;91.12
3440;BME280;1733;42.286;22.690;2023-04-01T02:44:28;94711.69;;;10.04;91.57
3440;BME280;1733;42.286;22.690;2023-04-01T02:46:55;94709.59;;;10.06;91.88
3440;BME280;1733;42.286;22.690;2023-04-01T02:49:22;94708.53;;;10.07;91.44
3440;BME280;1733;42.286;22.690;2023-04-01T02:51:49;94706.75;;;10.13;89.21
3440;BME280;1733;42.286;22.690;2023-04-01T02:54:17;94708.97;;;10.31;87.51
3440;BME280;1733;42.286;22.690;2023-04-01T02:56:44;94715.25;;;10.25;87.29
3440;BME280;1733;42.286;22.690;2023-04-01T02:59:11;94707.38;;;10.25;87.79
3440;BME280;1733;42.286;22.690;2023-04-01T03:01:40;94703.38;;;10.18;88.05
3440;BME280;1733;42.286;22.690;2023-04-01T03:04:06;94707.00;;;10.11;89.67
3440;BME280;1733;42.286;22.690;2023-04-01T03:06:33;94711.97;;;10.08;90.58
3440;BME280;1733;42.286;22.690;2023-04-01T03:09:00;94707.50;;;10.03;89.77
3440;BME280;1733;42.286;22.690;2023-04-01T03:11:27;94703.78;;;9.99;90.18
3440;BME280;1733;42.286;22.690;2023-04-01T03:13:55;94700.63;;;9.97;90.25
3440;BME280;1733;42.286;22.690;2023-04-01T03:16:22;94691.72;;;10.03;90.24
3440;BME280;1733;42.286;22.690;2023-04-01T03:18:50;94686.44;;;9.98;91.34
3440;BME280;1733;42.286;22.690;2023-04-01T03:21:20;94678.56;;;9.98;91.36
3440;BME280;1733;42.286;22.690;2023-04-01T03:23:48;94662.50;;;9.95;92.25
3440;BME280;1733;42.286;22.690;2023-04-01T03:26:18;94650.97;;;9.96;91.97
3440;BME280;1733;42.286;22.690;2023-04-01T03:28:47;94648.03;;;9.87;92.43
3440;BME280;1733;42.286;22.690;2023-04-01T03:31:22;94667.72;;;9.90;93.25
3440;BME280;1733;42.286;22.690;2023-04-01T03:33:52;94661.69;;;9.89;93.29
3440;BME280;1733;42.286;22.690;2023-04-01T03:36:20;94677.75;;;9.93;93.38
3440;BME280;1733;42.286;22.690;2023-04-01T03:38:48;94662.22;;;9.91;93.90
3440;BME280;1733;42.286;22.690;2023-04-01T03:41:15;94655.38;;;9.90;93.49
3440;BME280;1733;42.286;22.690;2023-04-01T03:43:43;94666.47;;;9.97;92.83
3440;BME280;1733;42.286;22.690;2023-04-01T03:46:11;94672.78;;;10.01;92.33
3440;BME280;1733;42.286;22.690;2023-04-01T03:48:37;94672.22;;;9.94;92.97
3440;BME280;1733;42.286;22.690;2023-04-01T03:51:08;94665.66;;;9.92;93.08
3440;BME280;1733;42.286;22.690;2023-04-01T03:53:35;94652.50;;;9.86;93.83
3440;BME280;1733;42.286;22.690;2023-04-01T03:56:04;94647.00;;;9.88;93.74
3440;BME280;1733;42.286;22.690;2023-04-01T03:58:31;94633.34;;;9.91;94.55
3440;BME280;1733;42.286;22.690;2023-04-01T04:00:58;94629.66;;;9.87;96.20
3440;BME280;1733;42.286;22.690;2023-04-01T04:03:24;94632.78;;;9.84;96.57
3440;BME280;1733;42.286;22.690;2023-04-01T04:05:52;94627.50;;;9.79;96.59
3440;BME280;1733;42.286;22.690;2023-04-01T04:08:20;94617.78;;;9.74;97.51
3440;BME280;1733;42.286;22.690;2023-04-01T04:10:47;94615.94;;;9.75;98.73
3440;BME280;1733;42.286;22.690;2023-04-01T04:13:21;94611.69;;;9.69;100.00
3440;BME280;1733;42.286;22.690;2023-04-01T04:15:47;94602.56;;;9.76;98.09
3440;BME280;1733;42.286;22.690;2023-04-01T04:18:14;94606.63;;;9.99;95.96
3440;BME280;1733;42.286;22.690;2023-04-01T04:20:43;94606.66;;;10.04;94.64
3440;BME280;1733;42.286;22.690;2023-04-01T04:23:12;94604.16;;;9.82;95.58
3440;BME280;1733;42.286;22.690;2023-04-01T04:25:40;94600.66;;;9.67;96.91
3440;BME280;1733;42.286;22.690;2023-04-01T04:28:07;94584.56;;;9.53;97.74
3440;BME280;1733;42.286;22.690;2023-04-01T04:30:34;94581.38;;;9.46;98.24
3440;BME280;1733;42.286;22.690;2023-04-01T04:33:01;94581.59;;;9.44;99.24
3440;BME280;1733;42.286;22.690;2023-04-01T04:35:28;94575.53;;;9.33;99.91
3440;BME280;1733;42.286;22.690;2023-04-01T04:37:55;94571.50;;;9.26;100.00
3440;BME280;1733;42.286;22.690;2023-04-01T04:40:21;94567.28;;;9.20;100.00
3440;BME280;1733;42.286;22.690;2023-04-01T04:42:50;94557.56;;;9.20;100.00
3440;BME280;1733;42.286;22.690;2023-04-01T04:45:17;94556.75;;;9.15;100.00
3440;BME280;1733;42.286;22.690;2023-04-01T04:47:44;94559.84;;;9.06;100.00
3440;BME280;1733;42.286;22.690;2023-04-01T04:50:11;94560.31;;;9.03;100.00
3440;BME280;1733;42.286;22.690;2023-04-01T04:52:38;94557.69;;;9.03;100.00
3440;BME280;1733;42.286;22.690;2023-04-01T04:55:05;94554.28;;;9.03;100.00
3440;BME280;1733;42.286;22.690;2023-04-01T04:57:32;94557.44;;;9.00;100.00
3440;BME280;1733;42.286;22.690;2023-04-01T05:00:01;94548.00;;;8.99;100.00
3440;BME280;1733;42.286;22.690;2023-04-01T05:02:28;94556.25;;;8.86;100.00
3440;BME280;1733;42.286;22.690;2023-04-01T05:04:55;94541.34;;;8.91;100.00
3440;BME280;1733;42.286;22.690;2023-04-01T05:07:22;94548.44;;;8.91;100.00
3440;BME280;1733;42.286;22.690;2023-04-01T05:09:49;94548.47;;;8.96;100.00
3440;BME280;1733;42.286;22.690;2023-04-01T05:12:16;94549.09;;;9.08;100.00
3440;BME280;1733;42.286;22.690;2023-04-01T05:14:43;94556.00;;;9.19;100.00
3440;BME280;1733;42.286;22.690;2023-04-01T05:17:12;94560.56;;;9.39;100.00
3440;BME280;1733;42.286;22.690;2023-04-01T05:19:39;94562.28;;;9.60;100.00
3440;BME280;1733;42.286;22.690;2023-04-01T05:22:07;94559.56;;;9.88;98.42
3440;BME280;1733;42.286;22.690;2023-04-01T05:24:34;94552.03;;;10.06;95.50
3440;BME280;1733;42.286;22.690;2023-04-01T05:27:00;94536.09;;;10.28;91.51
3440;BME280;1733;42.286;22.690;2023-04-01T05:29:27;94531.66;;;10.49;90.08
3440;BME280;1733;42.286;22.690;2023-04-01T05:31:54;94526.72;;;10.78;88.93
3440;BME280;1733;42.286;22.690;2023-04-01T05:34:22;94520.41;;;11.10;87.14
3440;BME280;1733;42.286;22.690;2023-04-01T05:36:49;94529.63;;;11.28;84.41
3440;BME280;1733;42.286;22.690;2023-04-01T05:39:17;94526.13;;;11.53;80.74
3440;BME280;1733;42.286;22.690;2023-04-01T05:41:44;94521.09;;;11.82;77.24
3440;BME280;1733;42.286;22.690;2023-04-01T05:44:11;94522.53;;;12.18;75.58
3440;BME280;1733;42.286;22.690;2023-04-01T05:46:39;94526.03;;;12.53;71.95
3440;BME280;1733;42.286;22.690;2023-04-01T05:49:06;94513.97;;;12.81;70.37
3440;BME280;1733;42.286;22.690;2023-04-01T05:51:35;94516.16;;;13.08;67.68
3440;BME280;1733;42.286;22.690;2023-04-01T05:54:04;94506.41;;;13.03;66.58
3440;BME280;1733;42.286;22.690;2023-04-01T05:56:31;94501.13;;;13.03;66.45
3440;BME280;1733;42.286;22.690;2023-04-01T05:58:57;94511.13;;;13.12;66.24
3440;BME280;1733;42.286;22.690;2023-04-01T06:01:24;94515.59;;;13.11;64.71
3440;BME280;1733;42.286;22.690;2023-04-01T06:03:51;94521.44;;;13.08;64.82
3440;BME280;1733;42.286;22.690;2023-04-01T06:06:23;94521.94;;;13.10;65.77
3440;BME280;1733;42.286;22.690;2023-04-01T06:08:53;94503.94;;;13.22;63.73
3440;BME280;1733;42.286;22.690;2023-04-01T06:11:31;94504.06;;;13.36;64.12
3440;BME280;1733;42.286;22.690;2023-04-01T06:14:13;94488.91;;;13.47;63.37
3440;BME280;1733;42.286;22.690;2023-04-01T06:16:58;94484.13;;;13.49;61.44
3440;BME280;1733;42.286;22.690;2023-04-01T06:19:36;94484.31;;;13.57;61.95
3440;BME280;1733;42.286;22.690;2023-04-01T06:22:25;94479.75;;;13.63;62.14
3440;BME280;1733;42.286;22.690;2023-04-01T06:25:14;94473.91;;;13.66;60.78
3440;BME280;1733;42.286;22.690;2023-04-01T06:27:55;94486.03;;;13.67;59.76
3440;BME280;1733;42.286;22.690;2023-04-01T06:30:33;94489.69;;;13.71;59.80
3440;BME280;1733;42.286;22.690;2023-04-01T06:33:11;94485.09;;;13.82;58.99
3440;BME280;1733;42.286;22.690;2023-04-01T06:38:45;94492.53;;;13.80;59.60
3440;BME280;1733;42.286;22.690;2023-04-01T06:41:37;94485.88;;;13.82;60.00
3440;BME280;1733;42.286;22.690;2023-04-01T06:44:14;94477.22;;;13.77;60.38
3440;BME280;1733;42.286;22.690;2023-04-01T06:46:45;94472.47;;;13.74;60.69
3440;BME280;1733;42.286;22.690;2023-04-01T06:49:33;94471.69;;;13.73;60.56
3440;BME280;1733;42.286;22.690;2023-04-01T06:52:14;94475.78;;;13.84;60.18
3440;BME280;1733;42.286;22.690;2023-04-01T06:54:49;94461.97;;;13.93;60.62
3440;BME280;1733;42.286;22.690;2023-04-01T06:57:28;94462.41;;;14.00;59.82
3440;BME280;1733;42.286;22.690;2023-04-01T06:59:59;94475.50;;;14.10;58.89
3440;BME280;1733;42.286;22.690;2023-04-01T07:02:33;94471.56;;;14.07;59.04
3440;BME280;1733;42.286;22.690;2023-04-01T07:05:04;94479.88;;;13.96;58.36
3440;BME280;1733;42.286;22.690;2023-04-01T07:07:35;94471.34;;;14.04;58.43
3440;BME280;1733;42.286;22.690;2023-04-01T07:10:10;94449.63;;;14.26;57.99
3440;BME280;1733;42.286;22.690;2023-04-01T07:12:45;94458.88;;;14.47;58.73
3440;BME280;1733;42.286;22.690;2023-04-01T07:15:19;94457.09;;;14.61;56.61
3440;BME280;1733;42.286;22.690;2023-04-01T07:17:48;94450.47;;;14.78;56.26
3440;BME280;1733;42.286;22.690;2023-04-01T07:20:23;94452.22;;;15.01;56.17
3440;BME280;1733;42.286;22.690;2023-04-01T07:22:54;94454.94;;;15.29;55.50
3440;BME280;1733;42.286;22.690;2023-04-01T07:25:26;94452.31;;;15.42;55.94
3440;BME280;1733;42.286;22.690;2023-04-01T07:28:00;94433.16;;;15.59;56.76
3440;BME280;1733;42.286;22.690;2023-04-01T07:30:32;94427.28;;;15.76;55.83
3440;BME280;1733;42.286;22.690;2023-04-01T07:33:05;94440.63;;;15.99;54.45
3440;BME280;1733;42.286;22.690;2023-04-01T07:35:39;94426.09;;;16.10;53.54
3440;BME280;1733;42.286;22.690;2023-04-01T07:38:16;94413.38;;;16.20;52.96
3440;BME280;1733;42.286;22.690;2023-04-01T07:40:56;94423.84;;;16.39;51.79
3440;BME280;1733;42.286;22.690;2023-04-01T07:43:44;94424.47;;;16.59;51.70
3440;BME280;1733;42.286;22.690;2023-04-01T07:46:23;94411.59;;;16.88;52.52
3440;BME280;1733;42.286;22.690;2023-04-01T07:48:59;94394.63;;;17.38;51.88
3440;BME280;1733;42.286;22.690;2023-04-01T07:51:37;94384.78;;;17.78;50.30
3440;BME280;1733;42.286;22.690;2023-04-01T07:54:09;94381.31;;;17.69;49.32
3440;BME280;1733;42.286;22.690;2023-04-01T07:56:43;94366.59;;;17.63;48.93
3440;BME280;1733;42.286;22.690;2023-04-01T07:59:19;94348.97;;;17.75;48.20
3440;BME280;1733;42.286;22.690;2023-04-01T08:01:55;94346.63;;;17.83;49.39
3440;BME280;1733;42.286;22.690;2023-04-01T08:04:47;94334.66;;;17.45;49.83
3440;BME280;1733;42.286;22.690;2023-04-01T08:07:20;94322.94;;;17.46;49.49
3440;BME280;1733;42.286;22.690;2023-04-01T08:09:55;94317.78;;;17.59;50.85
3440;BME280;1733;42.286;22.690;2023-04-01T08:12:32;94317.06;;;17.75;51.23
3440;BME280;1733;42.286;22.690;2023-04-01T08:15:15;94297.84;;;18.22;50.19
3440;BME280;1733;42.286;22.690;2023-04-01T08:17:53;94296.84;;;18.52;49.86
3440;BME280;1733;42.286;22.690;2023-04-01T08:20:29;94298.72;;;18.69;49.26
3440;BME280;1733;42.286;22.690;2023-04-01T08:23:02;94293.38;;;18.60;50.13
3440;BME280;1733;42.286;22.690;2023-04-01T08:25:34;94283.63;;;18.82;49.73
3440;BME280;1733;42.286;22.690;2023-04-01T08:28:11;94285.38;;;18.60;48.88
3440;BME280;1733;42.286;22.690;2023-04-01T08:30:47;94277.69;;;18.85;47.44
3440;BME280;1733;42.286;22.690;2023-04-01T08:33:17;94276.38;;;18.44;48.10
3440;BME280;1733;42.286;22.690;2023-04-01T08:35:50;94269.06;;;18.15;48.50
3440;BME280;1733;42.286;22.690;2023-04-01T08:38:22;94260.28;;;18.23;48.54
3440;BME280;1733;42.286;22.690;2023-04-01T08:41:15;94250.28;;;18.84;49.05
3440;BME280;1733;42.286;22.690;2023-04-01T08:43:59;94235.69;;;19.20;47.89
3440;BME280;1733;42.286;22.690;2023-04-01T08:50:00;94223.34;;;19.57;46.87
3440;BME280;1733;42.286;22.690;2023-04-01T08:52:36;94218.22;;;19.94;44.03
3440;BME280;1733;42.286;22.690;2023-04-01T09:01:17;94213.66;;;20.28;43.85
3440;BME280;1733;42.286;22.690;2023-04-01T09:04:13;94218.03;;;20.32;44.08
3440;BME280;1733;42.286;22.690;2023-04-01T09:06:51;94215.69;;;19.98;44.72
3440;BME280;1733;42.286;22.690;2023-04-01T09:12:49;94199.63;;;19.85;44.09
3440;BME280;1733;42.286;22.690;2023-04-01T09:15:43;94195.81;;;19.74;42.88
3440;BME280;1733;42.286;22.690;2023-04-01T09:18:27;94181.84;;;19.77;42.38
3440;BME280;1733;42.286;22.690;2023-04-01T09:21:19;94186.50;;;19.59;44.99
3440;BME280;1733;42.286;22.690;2023-04-01T09:27:12;94188.53;;;18.82;47.54
3440;BME280;1733;42.286;22.690;2023-04-01T09:30:19;94181.66;;;18.81;47.68
3440;BME280;1733;42.286;22.690;2023-04-01T09:33:08;94172.63;;;18.74;47.83
3440;BME280;1733;42.286;22.690;2023-04-01T09:35:46;94172.56;;;18.82;47.45
3440;BME280;1733;42.286;22.690;2023-04-01T09:38:28;94170.00;;;18.95;47.15
3440;BME280;1733;42.286;22.690;2023-04-01T09:40:58;94168.09;;;18.95;47.19
3440;BME280;1733;42.286;22.690;2023-04-01T09:43:46;94157.63;;;18.90;46.79
3440;BME280;1733;42.286;22.690;2023-04-01T09:46:24;94150.59;;;19.15;46.67
3440;BME280;1733;42.286;22.690;2023-04-01T09:49:14;94147.41;;;19.22;46.48
3440;BME280;1733;42.286;22.690;2023-04-01T09:51:54;94137.88;;;19.62;45.97
3440;BME280;1733;42.286;22.690;2023-04-01T09:54:48;94148.09;;;19.93;45.43
3440;BME280;1733;42.286;22.690;2023-04-01T09:57:40;94147.88;;;19.65;44.31
3440;BME280;1733;42.286;22.690;2023-04-01T10:00:30;94143.31;;;19.45;43.58
3440;BME280;1733;42.286;22.690;2023-04-01T10:03:30;94130.31;;;19.44;44.45
3440;BME280;1733;42.286;22.690;2023-04-01T10:12:56;94122.25;;;19.73;42.38
3440;BME280;1733;42.286;22.690;2023-04-01T10:19:07;94112.63;;;19.93;43.08
3440;BME280;1733;42.286;22.690;2023-04-01T10:22:04;94119.47;;;19.82;43.46
3440;BME280;1733;42.286;22.690;2023-04-01T10:27:58;94113.66;;;19.67;43.04
3440;BME280;1733;42.286;22.690;2023-04-01T10:34:05;94100.91;;;19.73;40.15
3440;BME280;1733;42.286;22.690;2023-04-01T10:36:52;94094.59;;;19.78;40.03
3440;BME280;1733;42.286;22.690;2023-04-01T10:39:58;94088.53;;;20.02;39.13
3440;BME280;1733;42.286;22.690;2023-04-01T10:46:00;94068.75;;;20.64;39.02
3440;BME280;1733;42.286;22.690;2023-04-01T10:54:44;94100.88;;;19.61;40.19
3440;BME280;1733;42.286;22.690;2023-04-01T10:57:24;94137.47;;;19.31;40.97
3440;BME280;1733;42.286;22.690;2023-04-01T11:00:32;94175.72;;;19.05;41.31
3440;BME280;1733;42.286;22.690;2023-04-01T11:03:35;94207.09;;;18.70;43.71
3440;BME280;1733;42.286;22.690;2023-04-01T11:06:30;94249.31;;;17.47;55.67
3440;BME280;1733;42.286;22.690;2023-04-01T11:09:34;94305.63;;;15.25;88.88
3440;BME280;1733;42.286;22.690;2023-04-01T11:21:50;94368.38;;;12.50;100.00
3440;BME280;1733;42.286;22.690;2023-04-01T11:24:39;94356.38;;;12.34;100.00
3440;BME280;1733;42.286;22.690;2023-04-01T11:27:25;94328.72;;;12.36;100.00
3440;BME280;1733;42.286;22.690;2023-04-01T11:30:03;94340.03;;;12.37;100.00
3440;BME280;1733;42.286;22.690;2023-04-01T11:32:49;94331.03;;;12.43;100.00
3440;BME280;1733;42.286;22.690;2023-04-01T11:35:28;94331.59;;;12.64;100.00
3440;BME280;1733;42.286;22.690;2023-04-01T11:38:10;94328.28;;;12.82;100.00
3440;BME280;1733;42.286;22.690;2023-04-01T11:40:45;94339.66;;;13.30;100.00
3440;BME280;1733;42.286;22.690;2023-04-01T11:43:20;94318.47;;;13.73;100.00
3440;BME280;1733;42.286;22.690;2023-04-01T11:45:55;94280.63;;;14.29;100.00
3440;BME280;1733;42.286;22.690;2023-04-01T11:48:36;94296.09;;;14.55;100.00
3440;BME280;1733;42.286;22.690;2023-04-01T11:51:21;94307.31;;;15.21;100.00
3440;BME280;1733;42.286;22.690;2023-04-01T11:53:59;94291.28;;;16.03;100.00
3440;BME280;1733;42.286;22.690;2023-04-01T11:56:39;94298.91;;;16.49;100.00
3440;BME280;1733;42.286;22.690;2023-04-01T11:59:29;94311.22;;;16.99;100.00
3440;BME280;1733;42.286;22.690;2023-04-01T12:02:08;94313.13;;;17.07;100.00
3440;BME280;1733;42.286;22.690;2023-04-01T12:04:52;94313.88;;;17.47;100.00
3440;BME280;1733;42.286;22.690;2023-04-01T12:07:30;94318.00;;;17.97;100.00
3440;BME280;1733;42.286;22.690;2023-04-01T12:10:05;94327.41;;;18.12;100.00
3440;BME280;1733;42.286;22.690;2023-04-01T12:12:44;94332.56;;;17.82;100.00
3440;BME280;1733;42.286;22.690;2023-04-01T12:15:19;94329.22;;;17.59;100.00
3440;BME280;1733;42.286;22.690;2023-04-01T12:17:55;94323.56;;;17.52;100.00
3440;BME280;1733;42.286;22.690;2023-04-01T12:20:32;94326.44;;;17.73;100.00
3440;BME280;1733;42.286;22.690;2023-04-01T12:23:13;94326.19;;;17.43;100.00
3440;BME280;1733;42.286;22.690;2023-04-01T12:26:03;94314.84;;;17.12;100.00
3440;BME280;1733;42.286;22.690;2023-04-01T12:28:43;94322.03;;;16.80;100.00
3440;BME280;1733;42.286;22.690;2023-04-01T12:31:35;94326.09;;;16.33;100.00
3440;BME280;1733;42.286;22.690;2023-04-01T12:37:17;94328.59;;;15.93;100.00
3440;BME280;1733;42.286;22.690;2023-04-01T12:39:56;94334.41;;;15.95;100.00
3440;BME280;1733;42.286;22.690;2023-04-01T12:42:40;94326.72;;;16.07;100.00
3440;BME280;1733;42.286;22.690;2023-04-01T12:45:35;94313.88;;;16.01;100.00
3440;BME280;1733;42.286;22.690;2023-04-01T12:48:18;94308.78;;;15.90;100.00
3440;BME280;1733;42.286;22.690;2023-04-01T12:51:21;94319.41;;;15.90;100.00
3440;BME280;1733;42.286;22.690;2023-04-01T12:54:23;94328.97;;;16.00;100.00
3440;BME280;1733;42.286;22.690;2023-04-01T12:57:01;94316.16;;;16.38;100.00
3440;BME280;1733;42.286;22.690;2023-04-01T12:59:42;94290.75;;;16.46;100.00
3440;BME280;1733;42.286;22.690;2023-04-01T13:02:13;94276.75;;;16.01;100.00
3440;BME280;1733;42.286;22.690;2023-04-01T13:10:45;94278.28;;;17.74;100.00
3440;BME280;1733;42.286;22.690;2023-04-01T13:13:31;94279.44;;;18.64;98.96
3440;BME280;1733;42.286;22.690;2023-04-01T13:16:07;94277.19;;;20.01;94.66
3440;BME280;1733;42.286;22.690;2023-04-01T13:18:41;94278.88;;;21.30;86.64
3440;BME280;1733;42.286;22.690;2023-04-01T13:21:18;94275.06;;;21.18;82.34
3440;BME280;1733;42.286;22.690;2023-04-01T13:23:55;94263.91;;;20.46;86.46
3440;BME280;1733;42.286;22.690;2023-04-01T13:26:28;94271.19;;;19.33;79.62
3440;BME280;1733;42.286;22.690;2023-04-01T13:29:03;94291.69;;;18.47;84.91
3440;BME280;1733;42.286;22.690;2023-04-01T13:31:44;94298.78;;;18.00;88.49
3440;BME280;1733;42.286;22.690;2023-04-01T13:34:30;94295.13;;;17.61;86.38
3440;BME280;1733;42.286;22.690;2023-04-01T13:37:12;94300.81;;;17.20;89.08
3440;BME280;1733;42.286;22.690;2023-04-01T13:39:57;94300.94;;;16.75;93.44
3440;BME280;1733;42.286;22.690;2023-04-01T13:42:32;94280.97;;;16.02;95.96
3440;BME280;1733;42.286;22.690;2023-04-01T13:45:08;94286.13;;;15.48;95.20
3440;BME280;1733;42.286;22.690;2023-04-01T13:54:20;94285.84;;;14.67;99.61
3440;BME280;1733;42.286;22.690;2023-04-01T13:56:59;94296.03;;;14.41;94.88
3440;BME280;1733;42.286;22.690;2023-04-01T14:02:46;94289.78;;;13.85;88.77
3440;BME280;1733;42.286;22.690;2023-04-01T14:05:28;94253.22;;;13.74;92.97
3440;BME280;1733;42.286;22.690;2023-04-01T14:08:08;94254.19;;;13.64;97.33
3440;BME280;1733;42.286;22.690;2023-04-01T14:10:43;94234.00;;;14.52;96.60
3440;BME280;1733;42.286;22.690;2023-04-01T14:13:17;94229.69;;;16.99;88.00
3440;BME280;1733;42.286;22.690;2023-04-01T14:16:08;94225.41;;;19.81;81.27
3440;BME280;1733;42.286;22.690;2023-04-01T14:18:59;94239.88;;;21.29;67.57
3440;BME280;1733;42.286;22.690;2023-04-01T14:21:33;94237.06;;;23.05;60.95
3440;BME280;1733;42.286;22.690;2023-04-01T14:24:28;94248.25;;;24.32;57.34
3440;BME280;1733;42.286;22.690;2023-04-01T14:27:12;94236.25;;;25.64;57.84
3440;BME280;1733;42.286;22.690;2023-04-01T14:29:54;94222.91;;;26.68;51.74
3440;BME280;1733;42.286;22.690;2023-04-01T14:32:36;94224.41;;;26.32;51.74
3440;BME280;1733;42.286;22.690;2023-04-01T14:35:26;94218.13;;;26.95;53.75
3440;BME280;1733;42.286;22.690;2023-04-01T14:38:18;94225.41;;;26.50;45.77
3440;BME280;1733;42.286;22.690;2023-04-01T14:41:00;94208.16;;;26.25;51.23
3440;BME280;1733;42.286;22.690;2023-04-01T14:43:55;94203.97;;;27.64;46.73
3440;BME280;1733;42.286;22.690;2023-04-01T14:47:03;94209.34;;;28.37;44.47
3440;BME280;1733;42.286;22.690;2023-04-01T14:49:34;94219.31;;;28.26;40.23
3440;BME280;1733;42.286;22.690;2023-04-01T14:52:11;94215.88;;;27.04;41.31
3440;BME280;1733;42.286;22.690;2023-04-01T14:54:44;94205.06;;;25.89;42.25
3440;BME280;1733;42.286;22.690;2023-04-01T14:57:13;94202.59;;;26.82;42.64
3440;BME280;1733;42.286;22.690;2023-04-01T14:59:47;94205.81;;;27.49;41.20
3440;BME280;1733;42.286;22.690;2023-04-01T15:05:18;94203.28;;;28.94;37.39
3440;BME280;1733;42.286;22.690;2023-04-01T15:08:05;94201.97;;;28.30;39.44
3440;BME280;1733;42.286;22.690;2023-04-01T15:11:04;94208.22;;;28.52;39.27
3440;BME280;1733;42.286;22.690;2023-04-01T15:14:04;94197.00;;;28.36;38.15